createdAt,value
2023-02-06T00:00:48.804Z,23.87
2023-02-06T00:03:15.997Z,22.57
2023-02-06T00:05:43.294Z,22.40
2023-02-06T00:08:10.517Z,22.27
2023-02-06T00:10:37.704Z,21.83
2023-02-06T00:13:04.838Z,21.83
2023-02-06T00:15:32.034Z,21.57
2023-02-06T00:17:59.169Z,21.33
2023-02-06T00:20:26.290Z,22.43
2023-02-06T00:22:53.463Z,22.37
2023-02-06T00:25:20.581Z,22.93
2023-02-06T00:27:47.728Z,23.27
2023-02-06T00:30:15.011Z,21.70
2023-02-06T00:32:42.245Z,22.00
2023-02-06T00:35:09.369Z,24.30
2023-02-06T00:37:36.507Z,21.90
2023-02-06T00:40:03.667Z,22.97
2023-02-06T00:42:30.800Z,21.23
2023-02-06T00:44:57.933Z,22.03
2023-02-06T00:47:25.063Z,21.00
2023-02-06T00:49:52.186Z,22.73
2023-02-06T00:52:19.629Z,21.57
2023-02-06T00:54:46.754Z,21.97
2023-02-06T00:57:13.876Z,23.37
2023-02-06T00:59:40.990Z,23.30
2023-02-06T01:02:08.117Z,26.83
2023-02-06T01:04:35.307Z,24.50
2023-02-06T01:07:02.721Z,25.37
2023-02-06T01:09:29.862Z,21.27
2023-02-06T01:11:57.015Z,22.03
2023-02-06T01:14:24.210Z,20.97
2023-02-06T01:16:51.323Z,21.57
2023-02-06T01:19:18.502Z,21.27
2023-02-06T01:21:45.650Z,21.80
2023-02-06T01:24:12.768Z,20.70
2023-02-06T01:26:39.872Z,20.50
2023-02-06T01:29:07.025Z,21.10
2023-02-06T01:31:34.292Z,19.20
2023-02-06T01:34:01.598Z,21.47
2023-02-06T01:36:29.338Z,21.53
2023-02-06T01:38:56.475Z,22.07
2023-02-06T01:41:24.183Z,21.13
2023-02-06T01:44:26.824Z,22.40
2023-02-06T01:46:55.948Z,20.47
2023-02-06T01:49:25.625Z,21.00
2023-02-06T01:51:54.865Z,21.80
2023-02-06T01:54:22.074Z,19.40
2023-02-06T01:56:52.125Z,20.20
2023-02-06T01:59:20.124Z,20.47
2023-02-06T02:01:47.682Z,20.97
2023-02-06T02:04:19.737Z,20.53
2023-02-06T02:06:56.231Z,20.07
2023-02-06T02:09:23.377Z,20.63
2023-02-06T02:11:50.510Z,21.57
2023-02-06T02:14:17.904Z,20.77
2023-02-06T02:16:47.738Z,20.67
2023-02-06T02:19:29.934Z,22.03
2023-02-06T02:22:15.681Z,20.33
2023-02-06T02:25:00.579Z,21.13
2023-02-06T02:27:34.810Z,20.80
2023-02-06T02:30:07.856Z,19.90
2023-02-06T02:32:45.129Z,20.80
2023-02-06T02:35:19.531Z,19.37
2023-02-06T02:38:05.644Z,19.97
2023-02-06T02:40:50.997Z,19.77
2023-02-06T02:43:23.275Z,19.03
2023-02-06T02:45:53.747Z,19.43
2023-02-06T02:48:24.521Z,19.87
2023-02-06T02:50:53.038Z,19.20
2023-02-06T02:53:20.219Z,19.70
2023-02-06T02:55:47.415Z,19.97
2023-02-06T02:58:17.228Z,19.43
2023-02-06T03:00:46.084Z,19.93
2023-02-06T03:03:14.801Z,19.73
2023-02-06T03:05:48.811Z,20.27
2023-02-06T03:08:22.044Z,20.00
2023-02-06T03:10:56.527Z,19.73
2023-02-06T03:13:29.823Z,18.97
2023-02-06T03:16:05.674Z,19.73
2023-02-06T03:18:40.376Z,20.50
2023-02-06T03:21:09.979Z,20.50
2023-02-06T03:23:39.420Z,21.50
2023-02-06T03:26:08.587Z,21.53
2023-02-06T03:28:37.384Z,19.53
2023-02-06T03:31:06.950Z,20.27
2023-02-06T03:33:40.887Z,20.30
2023-02-06T03:36:11.133Z,20.10
2023-02-06T03:38:38.298Z,20.07
2023-02-06T03:41:06.177Z,18.87
2023-02-06T03:43:33.541Z,18.53
2023-02-06T03:46:02.265Z,19.67
2023-02-06T03:48:32.729Z,21.37
2023-02-06T03:51:02.180Z,20.00
2023-02-06T03:53:29.909Z,19.30
2023-02-06T03:55:59.641Z,18.97
2023-02-06T03:58:26.813Z,20.23
2023-02-06T04:00:54.138Z,21.10
2023-02-06T04:03:22.896Z,19.70
2023-02-06T04:05:50.040Z,18.10
2023-02-06T04:08:17.213Z,18.90
2023-02-06T04:10:44.363Z,17.87
2023-02-06T04:13:11.640Z,19.53
2023-02-06T04:15:39.053Z,18.70
2023-02-06T04:18:06.321Z,19.17
2023-02-06T04:20:33.493Z,18.47
2023-02-06T04:23:00.659Z,19.23
2023-02-06T04:25:27.862Z,17.70
2023-02-06T04:27:55.171Z,18.43
2023-02-06T04:30:22.436Z,21.13
2023-02-06T04:32:49.606Z,20.67
2023-02-06T04:35:16.793Z,21.20
2023-02-06T04:37:43.913Z,20.30
2023-02-06T04:40:11.394Z,19.73
2023-02-06T04:42:38.605Z,21.20
2023-02-06T04:45:05.941Z,20.10
2023-02-06T04:47:33.138Z,19.70
2023-02-06T04:50:00.274Z,20.03
2023-02-06T04:52:27.393Z,18.80
2023-02-06T04:54:54.545Z,20.00
2023-02-06T04:57:21.760Z,19.50
2023-02-06T04:59:49.200Z,19.30
2023-02-06T05:02:16.360Z,19.87
2023-02-06T05:04:43.533Z,18.57
2023-02-06T05:07:10.691Z,20.23
2023-02-06T05:09:37.815Z,20.23
2023-02-06T05:12:05.126Z,20.33
2023-02-06T05:14:32.266Z,18.67
2023-02-06T05:16:59.421Z,21.63
2023-02-06T05:19:26.527Z,21.30
2023-02-06T05:21:53.698Z,22.27
2023-02-06T05:24:20.867Z,22.87
2023-02-06T05:26:47.972Z,23.27
2023-02-06T05:29:15.086Z,24.77
2023-02-06T05:31:42.295Z,24.93
2023-02-06T05:34:10.244Z,25.40
2023-02-06T05:36:37.485Z,26.20
2023-02-06T05:39:04.766Z,25.23
2023-02-06T05:41:31.926Z,23.50
2023-02-06T05:43:59.058Z,25.03
2023-02-06T05:46:26.278Z,25.00
2023-02-06T05:48:53.455Z,25.10
2023-02-06T05:51:20.735Z,24.20
2023-02-06T05:53:47.971Z,24.80
2023-02-06T05:56:15.121Z,22.83
2023-02-06T05:58:42.270Z,23.90
2023-02-06T06:01:10.803Z,22.30
2023-02-06T06:03:38.600Z,23.33
2023-02-06T06:06:06.383Z,23.73
2023-02-06T06:08:33.627Z,23.20
2023-02-06T06:11:02.675Z,24.40
2023-02-06T06:13:30.278Z,23.33
2023-02-06T06:15:57.516Z,24.30
2023-02-06T06:18:24.730Z,24.60
2023-02-06T06:20:51.890Z,24.50
2023-02-06T06:23:19.044Z,23.73
2023-02-06T06:25:46.970Z,23.80
2023-02-06T06:28:14.241Z,22.77
2023-02-06T06:30:41.426Z,24.23
2023-02-06T06:33:08.581Z,23.23
2023-02-06T06:35:35.952Z,23.60
2023-02-06T06:38:03.298Z,24.00
2023-02-06T06:40:30.405Z,24.40
2023-02-06T06:42:57.581Z,25.93
2023-02-06T06:45:24.736Z,23.97
2023-02-06T06:47:52.086Z,24.00
2023-02-06T06:50:19.314Z,24.27
2023-02-06T06:52:46.449Z,22.40
2023-02-06T06:55:13.571Z,24.23
2023-02-06T06:57:40.716Z,27.50
2023-02-06T07:00:09.251Z,28.90
2023-02-06T07:02:36.363Z,34.90
2023-02-06T07:05:04.001Z,34.23
2023-02-06T07:07:31.132Z,24.97
2023-02-06T07:09:59.728Z,26.33
2023-02-06T07:12:27.279Z,23.83
2023-02-06T07:14:54.412Z,24.40
2023-02-06T07:17:21.548Z,23.20
2023-02-06T07:19:51.455Z,23.70
2023-02-06T07:22:19.305Z,22.60
2023-02-06T07:24:46.487Z,28.70
2023-02-06T07:27:13.715Z,26.53
2023-02-06T07:29:40.854Z,23.23
2023-02-06T07:32:08.057Z,23.23
2023-02-06T07:34:36.135Z,21.37
2023-02-06T07:37:03.756Z,21.40
2023-02-06T07:39:31.125Z,22.37
2023-02-06T07:41:58.447Z,23.77
2023-02-06T07:44:25.615Z,24.00
2023-02-06T07:46:52.903Z,25.97
2023-02-06T07:49:20.042Z,24.57
2023-02-06T07:51:47.405Z,22.90
2023-02-06T07:54:14.546Z,22.23
2023-02-06T07:56:41.729Z,21.53
2023-02-06T07:59:08.878Z,22.30
2023-02-06T08:01:36.095Z,22.33
2023-02-06T08:04:03.690Z,21.90
2023-02-06T08:06:31.149Z,22.73
2023-02-06T08:08:58.264Z,21.00
2023-02-06T08:11:27.763Z,21.07
2023-02-06T08:13:54.876Z,20.83
2023-02-06T08:16:22.927Z,19.73
2023-02-06T08:18:50.081Z,20.50
2023-02-06T08:21:18.575Z,18.77
2023-02-06T08:23:45.839Z,18.90
2023-02-06T08:26:14.422Z,19.13
2023-02-06T08:28:42.427Z,19.07
2023-02-06T08:31:14.349Z,20.10
2023-02-06T08:33:41.581Z,19.00
2023-02-06T08:36:10.510Z,19.77
2023-02-06T08:38:37.727Z,19.60
2023-02-06T08:41:05.209Z,19.97
2023-02-06T08:43:33.227Z,20.13
2023-02-06T08:46:00.513Z,19.20
2023-02-06T08:48:28.475Z,18.70
2023-02-06T08:51:02.762Z,19.30
2023-02-06T08:53:29.996Z,19.23
2023-02-06T08:56:01.673Z,18.83
2023-02-06T08:58:28.931Z,17.50
2023-02-06T09:00:56.118Z,20.17
2023-02-06T09:03:23.326Z,18.20
2023-02-06T09:05:51.583Z,19.50
2023-02-06T09:08:19.804Z,18.80
2023-02-06T09:10:47.159Z,17.70
2023-02-06T09:13:14.280Z,15.97
2023-02-06T09:15:43.237Z,15.37
2023-02-06T09:18:10.520Z,14.83
2023-02-06T09:20:37.636Z,13.50
2023-02-06T09:23:04.750Z,12.63
2023-02-06T09:25:31.861Z,12.33
2023-02-06T09:27:59.004Z,11.63
2023-02-06T09:30:26.214Z,10.87
2023-02-06T09:32:53.361Z,10.83
2023-02-06T09:35:20.485Z,10.27
2023-02-06T09:37:47.960Z,9.40
2023-02-06T09:40:17.142Z,9.60
2023-02-06T09:42:44.552Z,10.47
2023-02-06T09:45:17.581Z,9.80
2023-02-06T09:47:47.573Z,9.73
2023-02-06T09:50:17.830Z,9.73
2023-02-06T09:52:44.949Z,9.27
2023-02-06T09:55:18.066Z,8.83
2023-02-06T09:58:03.623Z,9.30
2023-02-06T10:00:42.784Z,8.57
2023-02-06T10:03:22.392Z,9.57
2023-02-06T10:05:49.512Z,8.93
2023-02-06T10:08:28.593Z,9.23
2023-02-06T10:10:56.894Z,8.03
2023-02-06T10:13:31.109Z,8.17
2023-02-06T10:16:05.457Z,7.70
2023-02-06T10:18:42.606Z,7.23
2023-02-06T10:21:25.972Z,8.00
2023-02-06T10:23:59.033Z,8.87
2023-02-06T10:26:26.168Z,7.83
2023-02-06T10:28:55.998Z,7.30
2023-02-06T10:31:26.046Z,7.67
2023-02-06T10:34:16.082Z,7.87
2023-02-06T10:36:52.305Z,8.50
2023-02-06T10:39:31.389Z,7.77
2023-02-06T10:42:10.519Z,7.70
2023-02-06T10:44:53.018Z,7.40
2023-02-06T10:47:32.929Z,8.03
2023-02-06T10:50:05.600Z,6.57
2023-02-06T10:52:34.706Z,6.80
2023-02-06T10:55:04.156Z,6.57
2023-02-06T10:57:32.191Z,6.17
2023-02-06T11:00:01.199Z,6.70
2023-02-06T11:02:46.283Z,6.00
2023-02-06T11:05:16.844Z,6.00
2023-02-06T11:07:48.176Z,6.67
2023-02-06T11:10:17.291Z,7.27
2023-02-06T11:12:51.308Z,7.23
2023-02-06T11:15:26.273Z,6.40
2023-02-06T11:17:54.233Z,7.30
2023-02-06T11:20:26.639Z,6.67
2023-02-06T11:22:53.990Z,5.80
2023-02-06T11:25:31.817Z,6.17
2023-02-06T11:27:59.304Z,6.50
2023-02-06T11:30:37.521Z,5.80
2023-02-06T11:33:25.089Z,5.43
2023-02-06T11:35:54.258Z,5.47
2023-02-06T11:38:22.861Z,4.83
2023-02-06T11:40:57.624Z,5.97
2023-02-06T11:43:25.951Z,5.83
2023-02-06T11:46:06.754Z,6.63
2023-02-06T11:48:33.866Z,6.33
2023-02-06T11:51:01.269Z,5.90
2023-02-06T11:53:28.569Z,6.40
2023-02-06T11:55:59.948Z,5.60
2023-02-06T11:58:29.502Z,5.83
2023-02-06T12:00:59.243Z,5.70
2023-02-06T12:03:31.109Z,4.73
2023-02-06T12:06:04.362Z,5.20
2023-02-06T12:08:41.270Z,5.13
2023-02-06T12:11:13.401Z,4.83
2023-02-06T12:13:43.734Z,5.30
2023-02-06T12:16:13.968Z,4.80
2023-02-06T12:18:43.881Z,5.00
2023-02-06T12:21:15.828Z,5.20
2023-02-06T12:23:48.974Z,4.97
2023-02-06T12:26:18.854Z,4.60
2023-02-06T12:29:06.117Z,5.00
2023-02-06T12:31:41.951Z,4.27
2023-02-06T12:34:14.624Z,4.33
2023-02-06T12:37:00.113Z,4.83
2023-02-06T12:39:30.868Z,4.67
2023-02-06T12:42:13.607Z,4.77
2023-02-06T12:44:47.106Z,4.30
2023-02-06T12:47:32.693Z,4.23
2023-02-06T12:50:02.577Z,4.03
2023-02-06T12:52:32.456Z,4.30
2023-02-06T12:55:06.242Z,4.17
2023-02-06T12:57:34.567Z,4.40
2023-02-06T13:00:22.196Z,4.23
2023-02-06T13:02:49.362Z,4.07
2023-02-06T13:05:25.654Z,4.20
2023-02-06T13:07:53.527Z,3.80
2023-02-06T13:10:22.317Z,4.17
2023-02-06T13:12:56.528Z,4.13
2023-02-06T13:15:24.968Z,3.97
2023-02-06T13:17:52.598Z,4.23
2023-02-06T13:20:20.632Z,4.00
2023-02-06T13:22:50.924Z,4.40
2023-02-06T13:25:30.228Z,4.33
2023-02-06T13:27:57.393Z,4.20
2023-02-06T13:30:24.584Z,4.50
2023-02-06T13:32:53.268Z,4.57
2023-02-06T13:35:22.584Z,4.57
2023-02-06T13:37:50.814Z,5.43
2023-02-06T13:40:23.856Z,5.03
2023-02-06T13:42:57.111Z,4.67
2023-02-06T13:45:26.923Z,4.83
2023-02-06T13:47:54.070Z,4.33
2023-02-06T13:50:44.076Z,4.90
2023-02-06T13:53:11.176Z,4.90
2023-02-06T13:55:44.175Z,5.00
2023-02-06T13:58:11.313Z,5.00
2023-02-06T14:00:43.386Z,5.30
2023-02-06T14:03:14.744Z,5.80
2023-02-06T14:05:49.317Z,4.03
2023-02-06T14:08:25.268Z,3.40
2023-02-06T14:11:25.351Z,2.33
2023-02-06T14:14:14.592Z,2.40
2023-02-06T14:16:41.750Z,2.20
2023-02-06T14:19:27.572Z,1.93
2023-02-06T14:22:04.119Z,1.80
2023-02-06T14:24:37.006Z,2.10
2023-02-06T14:27:24.456Z,2.17
2023-02-06T14:30:10.476Z,2.63
2023-02-06T14:32:43.674Z,2.37
2023-02-06T14:35:16.833Z,2.33
2023-02-06T14:37:57.145Z,2.53
2023-02-06T14:40:26.654Z,1.90
2023-02-06T14:43:05.262Z,2.13
2023-02-06T14:45:42.518Z,2.23
2023-02-06T14:48:39.467Z,2.30
2023-02-06T14:51:07.226Z,2.00
2023-02-06T14:53:38.526Z,3.47
2023-02-06T14:56:15.743Z,2.90
2023-02-06T14:58:46.713Z,2.50
2023-02-06T15:01:20.498Z,2.90
2023-02-06T15:03:48.841Z,4.13
2023-02-06T15:06:26.297Z,3.83
2023-02-06T15:08:53.421Z,4.37
2023-02-06T15:11:22.638Z,4.00
2023-02-06T15:13:53.757Z,3.00
2023-02-06T15:16:21.130Z,3.20
2023-02-06T15:18:48.257Z,2.90
2023-02-06T15:21:16.926Z,3.40
2023-02-06T15:23:46.883Z,3.30
2023-02-06T15:26:32.141Z,2.93
2023-02-06T15:29:00.735Z,3.60
2023-02-06T15:31:28.456Z,2.67
2023-02-06T15:33:57.458Z,2.53
2023-02-06T15:36:26.105Z,2.70
2023-02-06T15:38:53.424Z,2.73
2023-02-06T15:41:20.816Z,2.80
2023-02-06T15:43:48.344Z,2.70
2023-02-06T15:46:15.929Z,2.47
2023-02-06T15:48:49.841Z,2.63
2023-02-06T15:51:20.211Z,2.60
2023-02-06T15:53:48.724Z,2.70
2023-02-06T15:56:21.834Z,2.67
2023-02-06T15:58:50.196Z,2.87
2023-02-06T16:01:19.318Z,2.40
2023-02-06T16:03:49.918Z,2.93
2023-02-06T16:06:17.868Z,2.80
2023-02-06T16:08:53.143Z,3.00
2023-02-06T16:11:38.870Z,2.73
2023-02-06T16:14:06.841Z,3.33
2023-02-06T16:16:34.084Z,3.10
2023-02-06T16:19:01.316Z,3.20
2023-02-06T16:21:28.470Z,3.97
2023-02-06T16:23:56.869Z,3.60
2023-02-06T16:26:25.552Z,3.30
2023-02-06T16:28:58.454Z,3.50
2023-02-06T16:31:29.997Z,3.63
2023-02-06T16:34:03.122Z,3.10
2023-02-06T16:36:32.052Z,3.13
2023-02-06T16:39:04.147Z,3.37
2023-02-06T16:41:39.737Z,3.73
2023-02-06T16:44:14.726Z,4.00
2023-02-06T16:46:42.318Z,3.83
2023-02-06T16:49:13.582Z,3.63
2023-02-06T16:51:41.716Z,3.80
2023-02-06T16:54:09.708Z,4.13
2023-02-06T16:56:38.798Z,5.23
2023-02-06T16:59:06.022Z,4.63
2023-02-06T17:01:33.354Z,4.10
2023-02-06T17:04:00.502Z,4.70
2023-02-06T17:06:28.911Z,4.73
2023-02-06T17:09:03.292Z,4.63
2023-02-06T17:11:33.911Z,4.80
2023-02-06T17:14:01.074Z,4.50
2023-02-06T17:16:28.814Z,5.07
2023-02-06T17:18:56.238Z,5.00
2023-02-06T17:21:24.351Z,5.33
2023-02-06T17:23:52.013Z,4.90
2023-02-06T17:26:21.265Z,5.93
2023-02-06T17:28:49.001Z,6.03
2023-02-06T17:31:16.318Z,6.00
2023-02-06T17:33:43.472Z,6.47
2023-02-06T17:36:15.133Z,5.60
2023-02-06T17:38:42.272Z,5.47
2023-02-06T17:41:09.416Z,5.70
2023-02-06T17:43:37.444Z,6.20
2023-02-06T17:46:05.606Z,7.90
2023-02-06T17:48:36.341Z,11.83
2023-02-06T17:51:03.739Z,6.13
2023-02-06T17:53:30.849Z,6.07
2023-02-06T17:55:58.021Z,5.20
2023-02-06T17:58:25.159Z,5.07
2023-02-06T18:00:52.315Z,5.90
2023-02-06T18:03:19.828Z,4.90
2023-02-06T18:05:47.178Z,4.97
2023-02-06T18:08:15.540Z,5.03
2023-02-06T18:10:42.669Z,5.10
2023-02-06T18:13:09.800Z,5.17
2023-02-06T18:15:36.927Z,4.50
2023-02-06T18:18:04.938Z,5.00
2023-02-06T18:20:32.291Z,5.00
2023-02-06T18:22:59.489Z,6.20
2023-02-06T18:25:26.615Z,5.53
2023-02-06T18:27:53.812Z,4.93
2023-02-06T18:30:21.055Z,4.63
2023-02-06T18:32:48.278Z,4.83
2023-02-06T18:35:16.435Z,5.30
2023-02-06T18:37:43.804Z,6.40
2023-02-06T18:40:11.576Z,4.40
2023-02-06T18:42:50.829Z,4.90
2023-02-06T18:45:19.101Z,4.97
2023-02-06T18:47:46.388Z,4.43
2023-02-06T18:50:13.976Z,5.20
2023-02-06T18:52:41.163Z,4.60
2023-02-06T18:55:08.686Z,5.57
2023-02-06T18:57:36.553Z,4.90
2023-02-06T19:00:05.720Z,5.10
2023-02-06T19:02:33.086Z,5.07
2023-02-06T19:05:00.356Z,5.37
2023-02-06T19:07:27.791Z,5.83
2023-02-06T19:09:58.848Z,4.50
2023-02-06T19:12:29.689Z,4.30
2023-02-06T19:14:57.703Z,4.37
2023-02-06T19:17:25.515Z,4.47
2023-02-06T19:19:52.964Z,4.90
2023-02-06T19:22:20.207Z,4.37
2023-02-06T19:24:47.402Z,3.67
2023-02-06T19:27:14.657Z,3.73
2023-02-06T19:29:42.205Z,4.20
2023-02-06T19:32:09.735Z,3.80
2023-02-06T19:34:38.203Z,3.80
2023-02-06T19:37:06.089Z,3.70
2023-02-06T19:39:34.403Z,4.47
2023-02-06T19:42:02.000Z,3.87
2023-02-06T19:44:29.189Z,4.10
2023-02-06T19:46:56.798Z,4.77
2023-02-06T19:49:24.106Z,5.30
2023-02-06T19:51:51.274Z,5.20
2023-02-06T19:54:18.411Z,6.17
2023-02-06T19:56:47.175Z,5.93
2023-02-06T19:59:40.598Z,5.20
2023-02-06T20:02:07.717Z,4.83
2023-02-06T20:04:36.023Z,5.20
2023-02-06T20:07:03.269Z,5.00
2023-02-06T20:09:30.905Z,4.43
2023-02-06T20:11:58.345Z,5.80
2023-02-06T20:14:25.905Z,5.60
2023-02-06T20:16:53.214Z,4.93
2023-02-06T20:19:22.349Z,4.60
2023-02-06T20:21:50.900Z,4.40
2023-02-06T20:24:20.819Z,4.93
2023-02-06T20:26:49.257Z,5.13
2023-02-06T20:29:26.803Z,4.70
2023-02-06T20:31:54.784Z,5.20
2023-02-06T20:34:22.328Z,5.00
2023-02-06T20:36:50.279Z,4.80
2023-02-06T20:39:17.747Z,5.13
2023-02-06T20:41:45.888Z,5.10
2023-02-06T20:44:13.721Z,5.27
2023-02-06T20:46:41.351Z,4.97
2023-02-06T20:49:13.114Z,4.87
2023-02-06T20:51:40.242Z,5.00
2023-02-06T20:54:07.413Z,4.87
2023-02-06T20:56:34.949Z,5.10
2023-02-06T20:59:02.150Z,5.73
2023-02-06T21:01:30.682Z,5.40
2023-02-06T21:03:59.249Z,5.77
2023-02-06T21:06:28.013Z,6.47
2023-02-06T21:08:59.966Z,5.90
2023-02-06T21:11:29.574Z,5.87
2023-02-06T21:13:57.788Z,5.33
2023-02-06T21:16:25.540Z,5.30
2023-02-06T21:18:52.732Z,5.77
2023-02-06T21:21:20.138Z,5.43
2023-02-06T21:23:47.980Z,5.00
2023-02-06T21:26:17.317Z,5.87
2023-02-06T21:28:44.833Z,5.07
2023-02-06T21:31:19.809Z,4.70
2023-02-06T21:33:47.703Z,4.77
2023-02-06T21:36:15.204Z,4.30
2023-02-06T21:38:42.994Z,4.10
2023-02-06T21:41:18.193Z,4.23
2023-02-06T21:43:45.885Z,5.30
2023-02-06T21:46:13.326Z,4.97
2023-02-06T21:48:41.154Z,5.20
2023-02-06T21:51:09.345Z,4.80
2023-02-06T21:53:36.647Z,4.60
2023-02-06T21:56:23.006Z,5.03
2023-02-06T21:58:50.584Z,4.30
2023-02-06T22:01:22.313Z,4.40
2023-02-06T22:03:49.562Z,4.87
2023-02-06T22:06:19.716Z,4.80
2023-02-06T22:08:48.303Z,4.60
2023-02-06T22:11:17.428Z,4.90
2023-02-06T22:13:44.914Z,4.67
2023-02-06T22:16:13.080Z,6.00
2023-02-06T22:18:40.423Z,4.90
2023-02-06T22:21:08.784Z,4.77
2023-02-06T22:23:35.950Z,4.63
2023-02-06T22:26:03.469Z,5.27
2023-02-06T22:28:31.574Z,6.23
2023-02-06T22:31:05.373Z,5.20
2023-02-06T22:33:32.655Z,6.10
2023-02-06T22:35:59.800Z,5.37
2023-02-06T22:38:26.997Z,6.10
2023-02-06T22:41:01.604Z,5.80
2023-02-06T22:43:33.248Z,5.77
2023-02-06T22:46:00.571Z,4.53
2023-02-06T22:48:27.821Z,5.00
2023-02-06T22:50:54.983Z,5.23
2023-02-06T22:53:31.966Z,5.20
2023-02-06T22:56:18.683Z,4.80
2023-02-06T22:58:45.847Z,5.57
2023-02-06T23:01:13.654Z,5.20
2023-02-06T23:03:40.869Z,5.00
2023-02-06T23:06:09.649Z,4.97
2023-02-06T23:08:37.176Z,5.30
2023-02-06T23:11:07.533Z,5.20
2023-02-06T23:13:34.692Z,5.07
2023-02-06T23:16:02.317Z,5.10
2023-02-06T23:18:29.689Z,5.40
2023-02-06T23:20:57.872Z,5.57
2023-02-06T23:23:25.013Z,4.37
2023-02-06T23:25:52.516Z,5.40
2023-02-06T23:28:23.350Z,5.80
2023-02-06T23:30:50.571Z,5.87
2023-02-06T23:33:18.119Z,6.80
2023-02-06T23:35:45.276Z,6.07
2023-02-06T23:38:12.416Z,6.47
2023-02-06T23:40:39.940Z,6.67
2023-02-06T23:43:07.561Z,7.77
2023-02-06T23:45:35.055Z,7.33
2023-02-06T23:48:02.261Z,7.23
2023-02-06T23:50:29.440Z,7.30
2023-02-06T23:52:56.612Z,7.27
2023-02-06T23:55:27.970Z,6.47
2023-02-06T23:57:55.314Z,6.90
